Airfield :
LOGIN :

Register | Disclaimer

   EN    FR    IT 

 










Legend :    VFR   Marginal VFR   IFR   Intensive IFR   Very Intensive IFR
Visi :
Ceiling :
>= 8 km
>= 3000ft
5 to 8 km
1000 to 3000 ft
1500m to 5 km
500 to 1000 ft
800 to 1500m
200 to 500 ft
< 800m
< 200 ft
Symbols :   Thunderstorms  Fog  Heavy snow  Heavy precipitations  Wind > 20 kt
SIGMETs :     Misc.  Thunderstorms  Icing  Turbulence  Mountain Waves  Volcanic Ashes







- Airport Elevation : 412 ft
- IATA code : KGS


LGKO - Ippokratis

CURRENT METAR :
  • 181050Z 25010KT 9000 4000S RA FEW018TCU BKN020 12/10 Q1010

EXPIRED METARs :
  • 181020Z 21007KT 9999 FEW018TCU BKN020 14/12 Q1011
  • 180950Z 14006KT 9999 SCT012 FEW015TCU BKN020 13/12 Q1011
  • 180920Z 11009KT 9999 SCT010 FEW015TCU BKN018 13/12 Q1011
  • 180850Z 11009KT 9999 SCT008 FEW015TCU BKN020 13/12 Q1011
  • 180820Z 10006KT 9999 -RA SCT008 FEW015TCU BKN020 13/10 Q1012

TAF TAF LGKO
Valid from the 18 at 12:00 until the 19 at 12:00 UTC


181100Z 1812/1912 24018KT 9999 SCT010 BKN018
TEMPO 1812/1912 5000 RA
PROB40
TEMPO 1812/1824 3000 TSRA SCT015 FEW018CB BKN020
BECMG 1900/1902 32020KT
No reported NOTAMs for that airfield.
1 SIGMET reported for the Athinai FIR (LGGG) :
 
Embedded thunderstorms
LGGG SIGMET 5 VALID 181050/181450 LGAT
LGGG ATHINAI FIR/UIR EMBD TS OBS S OF N3830 AND E OF E02100 MNLY MAR-COT MOV E NC=



MET'MAP, your aeronautical weather chart ! - Copyright ORBIFLY December 2007 - Disclaimer

ORBIFLY MET'MAP TEAM :

Programming & Development : Alexandra Zaïnal
Concept & Development : Baudouin d'Aumeries
Co-Development & Prog : Marc-Olivier Méhu
Technical & hardware support : Manuel Goepfert

Contact : metmap@orbifly.com




SOURCES & CREDITS :

   NOAA